createdAt,value
2023-04-14T00:01:36.387Z,3.77
2023-04-14T00:06:38.730Z,3.87
2023-04-14T00:11:41.135Z,3.80
2023-04-14T00:16:43.963Z,3.93
2023-04-14T00:21:46.325Z,3.85
2023-04-14T00:26:48.630Z,3.68
2023-04-14T00:31:50.920Z,3.66
2023-04-14T00:36:53.350Z,3.61
2023-04-14T00:41:57.757Z,3.68
2023-04-14T00:47:00.554Z,3.46
2023-04-14T00:52:03.218Z,3.47
2023-04-14T00:57:05.843Z,3.40
2023-04-14T01:02:18.306Z,3.36
2023-04-14T01:07:20.708Z,3.37
2023-04-14T01:12:24.679Z,3.38
2023-04-14T01:17:28.043Z,3.35
2023-04-14T01:22:30.432Z,3.35
2023-04-14T01:27:33.574Z,3.40
2023-04-14T01:32:46.068Z,3.14
2023-04-14T01:37:49.229Z,2.99
2023-04-14T01:42:54.254Z,3.12
2023-04-14T01:47:57.057Z,3.19
2023-04-14T01:52:59.432Z,3.16
2023-04-14T01:58:02.111Z,3.21
2023-04-14T02:03:04.903Z,3.08
2023-04-14T02:08:07.660Z,3.07
2023-04-14T02:13:10.581Z,3.12
2023-04-14T02:18:22.992Z,3.22
2023-04-14T02:23:28.320Z,3.29
2023-04-14T02:28:31.803Z,3.27
2023-04-14T02:33:35.003Z,3.31
2023-04-14T02:38:37.568Z,3.29
2023-04-14T02:43:40.755Z,3.31
2023-04-14T02:48:43.209Z,3.33
2023-04-14T02:53:45.816Z,3.36
2023-04-14T02:58:48.233Z,3.26
2023-04-14T03:03:51.392Z,3.32
2023-04-14T03:08:54.700Z,3.15
2023-04-14T03:13:57.029Z,3.18
2023-04-14T03:18:59.756Z,3.29
2023-04-14T03:24:02.370Z,3.15
2023-04-14T03:29:04.675Z,3.19
2023-04-14T03:34:06.967Z,3.25
2023-04-14T03:39:09.613Z,3.17
2023-04-14T03:44:15.799Z,3.15
2023-04-14T03:49:18.656Z,3.16
2023-04-14T03:54:21.899Z,3.16
2023-04-14T03:59:24.609Z,3.27
2023-04-14T04:04:27.952Z,3.31
2023-04-14T04:09:30.487Z,3.24
2023-04-14T04:14:33.310Z,3.33
2023-04-14T04:19:35.712Z,3.38
2023-04-14T04:24:38.329Z,3.40
2023-04-14T04:29:41.056Z,3.42
2023-04-14T04:34:43.440Z,3.48
2023-04-14T04:39:48.029Z,3.55
2023-04-14T04:44:52.067Z,3.65
2023-04-14T04:49:55.348Z,3.62
2023-04-14T04:54:58.632Z,3.66
2023-04-14T05:00:01.804Z,3.59
2023-04-14T05:05:05.094Z,3.58
2023-04-14T05:10:09.201Z,3.37
2023-04-14T05:15:12.138Z,3.25
2023-04-14T05:20:15.590Z,3.37
2023-04-14T05:25:18.769Z,3.47
2023-04-14T05:30:21.269Z,3.58
2023-04-14T05:35:25.291Z,3.56
2023-04-14T05:40:28.345Z,3.56
2023-04-14T05:45:31.576Z,3.61
2023-04-14T05:50:34.882Z,3.64
2023-04-14T05:55:38.012Z,3.67
2023-04-14T06:00:42.843Z,3.57
2023-04-14T06:05:48.192Z,3.53
2023-04-14T06:10:50.725Z,3.59
2023-04-14T06:15:54.983Z,3.59
2023-04-14T06:20:57.534Z,3.64
2023-04-14T06:26:00.230Z,3.56
2023-04-14T06:31:02.817Z,3.68
2023-04-14T06:36:05.605Z,3.73
2023-04-14T06:41:07.949Z,3.75
2023-04-14T06:46:12.110Z,3.72
2023-04-14T06:51:15.096Z,3.66
2023-04-14T06:56:17.781Z,3.64
2023-04-14T07:01:22.531Z,3.56
2023-04-14T07:06:25.459Z,3.50
2023-04-14T07:11:30.106Z,3.57
2023-04-14T07:16:33.622Z,3.74
2023-04-14T07:21:37.798Z,3.92
2023-04-14T07:26:40.908Z,4.05
2023-04-14T07:31:44.445Z,4.12
2023-04-14T07:36:47.138Z,4.19
2023-04-14T07:41:50.824Z,4.26
2023-04-14T07:46:54.486Z,4.38
2023-04-14T07:51:58.187Z,4.34
2023-04-14T07:57:02.512Z,4.44
2023-04-14T08:02:06.944Z,4.47
2023-04-14T08:07:09.704Z,4.29
2023-04-14T08:12:12.251Z,4.39
2023-04-14T08:17:15.728Z,4.60
2023-04-14T08:22:18.606Z,4.86
2023-04-14T08:27:21.414Z,4.83
2023-04-14T08:32:24.296Z,4.93
2023-04-14T08:37:30.956Z,4.94
2023-04-14T08:42:42.733Z,4.91
2023-04-14T08:47:46.804Z,5.25
2023-04-14T08:52:51.485Z,5.24
2023-04-14T08:57:55.854Z,5.31
2023-04-14T09:03:00.818Z,5.34
2023-04-14T09:08:06.335Z,5.51
2023-04-14T09:13:11.600Z,5.60
2023-04-14T09:18:14.850Z,5.68
2023-04-14T09:23:18.262Z,5.30
2023-04-14T09:28:22.271Z,5.61
2023-04-14T09:33:26.692Z,5.77
2023-04-14T09:38:31.765Z,6.29
2023-04-14T09:43:34.913Z,6.30
2023-04-14T09:48:38.097Z,6.53
2023-04-14T09:53:51.825Z,6.29
2023-04-14T09:59:03.221Z,6.52
2023-04-14T10:04:11.149Z,6.45
2023-04-14T10:09:16.194Z,6.67
2023-04-14T10:14:24.665Z,7.08
2023-04-14T10:19:34.044Z,7.75
2023-04-14T10:24:38.833Z,7.95
2023-04-14T10:29:46.008Z,7.89
2023-04-14T10:34:54.200Z,7.87
2023-04-14T10:39:58.749Z,8.12
2023-04-14T10:45:06.556Z,7.81
2023-04-14T10:50:09.886Z,7.58
2023-04-14T10:55:18.520Z,7.48
2023-04-14T11:00:23.571Z,7.77
2023-04-14T11:05:27.157Z,8.54
2023-04-14T11:10:30.938Z,8.50
2023-04-14T11:15:35.497Z,8.63
2023-04-14T11:20:38.668Z,8.62
2023-04-14T11:25:43.169Z,8.78
2023-04-14T11:30:46.255Z,9.41
2023-04-14T11:35:50.743Z,10.07
2023-04-14T11:40:54.217Z,9.50
2023-04-14T11:46:02.302Z,9.34
2023-04-14T11:51:10.970Z,9.33
2023-04-14T11:56:15.228Z,8.70
2023-04-14T12:01:20.144Z,8.83
2023-04-14T12:06:24.996Z,8.77
2023-04-14T12:11:29.454Z,8.25
2023-04-14T12:16:36.546Z,8.62
2023-04-14T12:21:39.938Z,8.85
2023-04-14T12:26:44.892Z,9.52
2023-04-14T12:31:49.765Z,9.78
2023-04-14T12:36:53.576Z,10.05
2023-04-14T12:42:04.496Z,10.42
2023-04-14T12:47:08.493Z,10.34
2023-04-14T12:52:14.163Z,10.79
2023-04-14T12:57:17.652Z,11.41
2023-04-14T13:02:25.179Z,11.76
2023-04-14T13:07:29.081Z,10.91
2023-04-14T13:12:42.335Z,9.09
2023-04-14T13:17:44.994Z,8.43
2023-04-14T13:22:49.822Z,8.54
2023-04-14T13:27:54.498Z,8.66
2023-04-14T13:32:59.047Z,9.09
2023-04-14T13:38:05.146Z,9.78
2023-04-14T13:43:17.567Z,10.51
2023-04-14T13:48:20.397Z,10.93
2023-04-14T13:53:26.050Z,11.04
2023-04-14T13:58:40.310Z,10.93
2023-04-14T14:03:45.612Z,10.79
2023-04-14T14:08:51.482Z,11.25
2023-04-14T14:13:54.905Z,11.42
2023-04-14T14:19:02.234Z,11.63
2023-04-14T14:24:07.316Z,11.06
2023-04-14T14:29:13.193Z,11.31
2023-04-14T14:34:17.301Z,11.73
2023-04-14T14:39:22.200Z,12.18
2023-04-14T14:44:27.486Z,11.26
2023-04-14T14:49:29.865Z,9.65
2023-04-14T14:54:34.335Z,9.70
2023-04-14T14:59:37.833Z,9.56
2023-04-14T15:10:01.685Z,8.81
2023-04-14T15:15:21.884Z,8.46
2023-04-14T15:20:39.340Z,8.13
2023-04-14T15:25:55.169Z,7.85
2023-04-14T15:30:58.807Z,6.90
2023-04-14T15:36:02.734Z,6.39
2023-04-14T15:41:13.963Z,5.94
2023-04-14T15:46:18.291Z,5.48
2023-04-14T15:51:26.524Z,5.36
2023-04-14T15:56:31.283Z,5.06
2023-04-14T16:01:38.634Z,5.20
2023-04-14T16:06:44.706Z,5.48
2023-04-14T16:11:51.688Z,5.37
2023-04-14T16:16:55.750Z,5.38
2023-04-14T16:22:00.269Z,5.60
2023-04-14T16:27:03.520Z,5.80
2023-04-14T16:32:07.745Z,5.81
2023-04-14T16:37:19.946Z,5.86
2023-04-14T16:42:25.743Z,5.91
2023-04-14T16:47:30.580Z,5.78
2023-04-14T16:52:37.090Z,5.93
2023-04-14T16:57:54.006Z,6.08
2023-04-14T17:02:59.889Z,6.17
2023-04-14T17:08:06.892Z,6.10
2023-04-14T17:13:22.690Z,6.02
2023-04-14T17:18:26.157Z,6.07
2023-04-14T17:23:29.506Z,6.00
2023-04-14T17:28:38.734Z,6.03
2023-04-14T17:33:43.018Z,5.85
2023-04-14T17:38:46.776Z,5.39
2023-04-14T17:43:54.183Z,5.29
2023-04-14T17:48:57.827Z,4.89
2023-04-14T17:54:01.821Z,4.86
2023-04-14T17:59:05.633Z,4.92
2023-04-14T18:04:09.271Z,4.86
2023-04-14T18:09:14.140Z,4.82
2023-04-14T18:14:17.743Z,4.76
2023-04-14T18:19:21.460Z,4.79
2023-04-14T18:29:33.297Z,4.84
2023-04-14T18:34:41.039Z,4.90
2023-04-14T18:39:45.621Z,5.00
2023-04-14T18:44:49.902Z,5.03
2023-04-14T18:49:54.077Z,5.01
2023-04-14T18:55:05.445Z,4.96
2023-04-14T19:00:09.270Z,4.63
2023-04-14T19:05:19.824Z,4.55
2023-04-14T19:10:25.944Z,4.60
2023-04-14T19:15:31.182Z,4.61
2023-04-14T19:20:38.557Z,4.71
2023-04-14T19:25:41.924Z,4.73
2023-04-14T19:30:46.623Z,4.71
2023-04-14T19:35:53.768Z,4.73
2023-04-14T19:40:59.142Z,4.87
2023-04-14T19:46:05.768Z,4.97
2023-04-14T19:51:09.053Z,4.97
2023-04-14T19:56:15.944Z,4.98
2023-04-14T20:01:22.586Z,4.94
2023-04-14T20:06:27.505Z,4.88
2023-04-14T20:11:32.031Z,4.89
2023-04-14T20:16:36.078Z,4.99
2023-04-14T20:21:47.524Z,5.00
2023-04-14T20:26:51.977Z,5.03
2023-04-14T20:31:56.182Z,5.07
2023-04-14T20:37:05.787Z,5.04
2023-04-14T20:42:09.820Z,5.03
2023-04-14T20:47:15.189Z,5.04
2023-04-14T20:52:19.848Z,5.03
2023-04-14T20:57:24.599Z,5.06
2023-04-14T21:02:28.867Z,5.04
2023-04-14T21:07:33.982Z,5.01
2023-04-14T21:15:24.833Z,5.03
2023-04-14T21:18:02.748Z,5.06
2023-04-14T21:23:06.511Z,5.05
2023-04-14T21:28:10.825Z,5.07
2023-04-14T21:33:14.869Z,5.04
2023-04-14T21:38:20.886Z,5.03
2023-04-14T21:43:24.728Z,5.07
2023-04-14T21:48:29.111Z,5.09
2023-04-14T21:53:33.304Z,5.07
2023-04-14T21:58:37.013Z,5.06
2023-04-14T22:03:40.421Z,5.03
2023-04-14T22:08:43.883Z,4.98
2023-04-14T22:13:54.797Z,4.97
2023-04-14T22:18:58.031Z,4.90
2023-04-14T22:24:01.477Z,4.84
2023-04-14T22:29:04.577Z,4.85
2023-04-14T22:34:10.010Z,4.79
2023-04-14T22:39:26.351Z,4.75
2023-04-14T22:44:31.591Z,4.72
2023-04-14T22:49:35.291Z,4.69
2023-04-14T22:54:39.182Z,4.63
2023-04-14T22:59:44.931Z,4.65
2023-04-14T23:04:52.715Z,4.65
2023-04-14T23:09:57.688Z,4.64
2023-04-14T23:15:00.980Z,4.60
2023-04-14T23:20:09.819Z,4.65
2023-04-14T23:25:13.773Z,4.66
2023-04-14T23:30:17.908Z,4.63
2023-04-14T23:35:22.429Z,4.64
2023-04-14T23:40:27.030Z,4.63
2023-04-14T23:45:37.136Z,4.65
2023-04-14T23:51:01.403Z,4.64
2023-04-14T23:56:04.898Z,4.69
